createdAt,value
2022-09-24T00:00:00.170Z,12
2022-09-24T00:05:11.924Z,12
2022-09-24T00:10:23.794Z,12
2022-09-24T00:15:35.756Z,12
2022-09-24T00:20:47.877Z,12
2022-09-24T00:25:59.549Z,12
2022-09-24T00:31:11.914Z,12
2022-09-24T00:36:23.925Z,12
2022-09-24T00:41:35.771Z,12
2022-09-24T00:46:47.766Z,12
2022-09-24T00:51:59.670Z,12
2022-09-24T00:57:11.556Z,12
2022-09-24T01:02:23.573Z,12
2022-09-24T01:07:35.550Z,12
2022-09-24T01:12:47.414Z,12
2022-09-24T01:17:59.103Z,12
2022-09-24T01:23:10.888Z,12
2022-09-24T01:28:22.611Z,12
2022-09-24T01:33:34.460Z,12
2022-09-24T01:38:46.229Z,12
2022-09-24T01:43:58.287Z,12
2022-09-24T01:49:10.272Z,12
2022-09-24T01:54:22.320Z,12
2022-09-24T01:59:34.191Z,12
2022-09-24T02:04:45.947Z,12
2022-09-24T02:09:57.953Z,12
2022-09-24T02:15:10.056Z,12
2022-09-24T02:20:21.794Z,12
2022-09-24T02:25:33.736Z,12
2022-09-24T02:30:45.577Z,11
2022-09-24T02:35:57.491Z,12
2022-09-24T02:41:09.409Z,12
2022-09-24T02:46:21.470Z,12
2022-09-24T02:51:33.335Z,12
2022-09-24T02:56:45.400Z,12
2022-09-24T03:01:57.715Z,12
2022-09-24T03:07:09.928Z,12
2022-09-24T03:12:21.621Z,11
2022-09-24T03:17:33.412Z,11
2022-09-24T03:22:45.138Z,11
2022-09-24T03:27:56.717Z,11
2022-09-24T03:33:08.509Z,11
2022-09-24T03:38:20.400Z,11
2022-09-24T03:43:32.251Z,11
2022-09-24T03:48:43.941Z,11
2022-09-24T03:53:55.860Z,11
2022-09-24T03:59:07.668Z,11
2022-09-24T04:04:19.732Z,11
2022-09-24T04:09:31.860Z,11
2022-09-24T04:14:43.797Z,11
2022-09-24T04:19:55.575Z,11
2022-09-24T04:25:15.230Z,11
2022-09-24T04:30:26.261Z,11
2022-09-24T04:35:37.854Z,10
2022-09-24T04:40:55.980Z,11
2022-09-24T04:46:09.226Z,11
2022-09-24T04:51:21.026Z,11
2022-09-24T04:56:32.974Z,11
2022-09-24T05:01:45.033Z,10
2022-09-24T05:06:56.981Z,11
2022-09-24T05:12:08.774Z,11
2022-09-24T05:17:20.633Z,11
2022-09-24T05:22:32.721Z,11
2022-09-24T05:27:44.774Z,11
2022-09-24T05:32:56.662Z,11
2022-09-24T05:38:08.801Z,11
2022-09-24T05:43:20.734Z,11
2022-09-24T05:48:32.733Z,11
2022-09-24T05:53:44.682Z,11
2022-09-24T05:58:56.820Z,11
2022-09-24T06:04:09.937Z,11
2022-09-24T06:09:21.395Z,12
2022-09-24T06:14:33.314Z,12
2022-09-24T06:19:45.337Z,12
2022-09-24T06:25:10.479Z,12
2022-09-24T06:30:19.656Z,12
2022-09-24T06:35:31.709Z,12
2022-09-24T06:40:44.063Z,13
2022-09-24T06:45:56.165Z,13
2022-09-24T06:51:08.324Z,13
2022-09-24T06:56:20.537Z,13
2022-09-24T07:01:33.203Z,14
2022-09-24T07:06:45.112Z,13
2022-09-24T07:11:57.374Z,14
2022-09-24T07:17:09.462Z,14
2022-09-24T07:22:21.544Z,14
2022-09-24T07:27:33.776Z,15
2022-09-24T07:32:45.810Z,15
2022-09-24T07:37:58.009Z,15
2022-09-24T07:43:10.398Z,15
2022-09-24T07:48:22.590Z,15
2022-09-24T07:53:35.040Z,16
2022-09-24T07:58:47.266Z,16
2022-09-24T08:04:00.070Z,16
2022-09-24T08:09:12.464Z,17
2022-09-24T08:14:24.654Z,17
2022-09-24T08:19:36.707Z,17
2022-09-24T08:24:48.885Z,17
2022-09-24T08:30:01.076Z,17
2022-09-24T08:35:13.344Z,17
2022-09-24T08:40:28.488Z,18
2022-09-24T08:45:39.956Z,18
2022-09-24T08:50:52.029Z,18
2022-09-24T08:56:04.434Z,18
2022-09-24T09:01:17.332Z,19
2022-09-24T09:06:29.633Z,19
2022-09-24T09:11:41.850Z,19
2022-09-24T09:16:53.991Z,19
2022-09-24T09:22:10.507Z,19
2022-09-24T09:27:25.451Z,19
2022-09-24T09:32:37.611Z,19
2022-09-24T09:37:50.029Z,19
2022-09-24T09:43:02.431Z,20
2022-09-24T09:48:17.076Z,20
2022-09-24T09:53:33.379Z,20
2022-09-24T09:58:48.945Z,20
2022-09-24T10:04:01.249Z,20
2022-09-24T10:09:13.786Z,20
2022-09-24T10:14:26.128Z,21
2022-09-24T10:19:38.838Z,21
2022-09-24T10:24:51.154Z,21
2022-09-24T10:30:03.526Z,21
2022-09-24T10:35:15.686Z,22
2022-09-24T10:40:28.753Z,22
2022-09-24T10:45:41.004Z,22
2022-09-24T10:50:53.286Z,22
2022-09-24T10:56:05.667Z,22
2022-09-24T11:01:18.261Z,22
2022-09-24T11:06:30.463Z,22
2022-09-24T11:11:42.716Z,22
2022-09-24T11:16:54.608Z,21
2022-09-24T11:22:06.687Z,21
2022-09-24T11:27:18.886Z,21
2022-09-24T11:32:30.713Z,21
2022-09-24T11:37:45.743Z,21
2022-09-24T11:43:06.648Z,21
2022-09-24T11:48:23.202Z,21
2022-09-24T11:53:35.691Z,21
2022-09-24T11:58:47.785Z,20
2022-09-24T12:09:10.039Z,20
2022-09-24T12:14:22.078Z,20
2022-09-24T12:19:34.022Z,20
2022-09-24T12:29:56.256Z,20
2022-09-24T12:35:09.221Z,20
2022-09-24T12:40:21.827Z,20
2022-09-24T12:45:35.078Z,20
2022-09-24T12:50:47.766Z,20
2022-09-24T12:55:59.609Z,19
2022-09-24T13:01:12.159Z,20
2022-09-24T13:06:24.294Z,20
2022-09-24T13:11:36.483Z,20
2022-09-24T13:16:48.367Z,19
2022-09-24T13:27:09.859Z,17
2022-09-24T13:32:21.542Z,17
2022-09-24T13:37:33.033Z,17
2022-09-24T13:42:44.771Z,17
2022-09-24T13:47:56.899Z,17
2022-09-24T13:53:08.704Z,17
2022-09-24T14:03:30.744Z,17
2022-09-24T14:13:52.105Z,16
2022-09-24T14:19:03.863Z,16
2022-09-24T14:24:16.084Z,16
2022-09-24T14:29:28.054Z,16
2022-09-24T14:34:39.745Z,16
2022-09-24T14:39:53.304Z,16
2022-09-24T14:45:04.794Z,16
2022-09-24T14:50:16.817Z,17
2022-09-24T14:55:28.882Z,17
2022-09-24T15:00:40.979Z,17
2022-09-24T15:11:02.913Z,16
2022-09-24T15:16:15.003Z,17
2022-09-24T15:21:27.056Z,17
2022-09-24T15:26:39.160Z,17
2022-09-24T15:31:51.203Z,17
2022-09-24T15:42:13.588Z,17
2022-09-24T16:49:24.580Z,16
2022-09-24T16:59:46.444Z,16
2022-09-24T17:05:02.412Z,16
2022-09-24T17:10:16.112Z,16
2022-09-24T17:20:38.418Z,16
2022-09-24T17:25:50.856Z,16
2022-09-24T17:36:13.157Z,16
2022-09-24T17:41:25.151Z,16
2022-09-24T17:46:37.856Z,16
